上海/浦東 の空港の天気 - METARとTAF

上海浦東国際空港 ( ZSPD / PVG ) - 中国 上海市
飛行場実況気象(Metar)
観測時間11/20 17:00 CST (11/20 09:00 UTC)
風向・風速北北西 5m/s
視程10km以上
天気現象
なし
気温9℃
湿度71%
気圧1028hPa
METARZSPD 200900Z 34005MPS CAVOK 09/04 Q1028 NOSIG
過去の天気等 Google飛行場航空写真 Wunderground天気予報

過去48時間のMETAR

飛行場予報(TAF)
発表時間: 11/20 11:17 CST (11/20 03:17 UTC)
予報対象時間: 20日14時 CST ~ 21日14時 CST
風向・風速北 4m/s
視程6,000m
全天の8割程度の雲 雲底高度 610m
TAF ZSPD 200317Z 2006/2106 01004MPS 6000 BKN020 TX13/2006Z TN08/2021Z